createdAt,value
2018-07-14T00:02:25.122Z,17.10
2018-07-14T00:04:53.599Z,17.10
2018-07-14T00:07:22.091Z,17.00
2018-07-14T00:09:50.651Z,17.00
2018-07-14T00:12:19.139Z,16.90
2018-07-14T00:14:47.625Z,16.90
2018-07-14T00:17:16.311Z,16.80
2018-07-14T00:19:44.847Z,16.80
2018-07-14T00:22:13.488Z,16.70
2018-07-14T00:24:42.110Z,16.70
2018-07-14T00:27:10.618Z,16.70
2018-07-14T00:29:39.111Z,16.70
2018-07-14T00:32:07.942Z,16.70
2018-07-14T00:34:36.444Z,16.70
2018-07-14T00:37:05.136Z,16.60
2018-07-14T00:39:33.588Z,16.60
2018-07-14T00:42:02.105Z,16.60
2018-07-14T00:44:30.700Z,16.50
2018-07-14T00:46:59.190Z,16.40
2018-07-14T00:49:27.667Z,16.40
2018-07-14T00:51:56.169Z,16.30
2018-07-14T00:54:24.840Z,16.30
2018-07-14T00:56:53.346Z,16.30
2018-07-14T00:59:21.843Z,16.30
2018-07-14T01:01:50.304Z,16.20
2018-07-14T01:04:18.748Z,16.20
2018-07-14T01:06:47.499Z,16.10
2018-07-14T01:09:16.007Z,16.10
2018-07-14T01:11:44.495Z,16.10
2018-07-14T01:14:13.444Z,16.10
2018-07-14T01:16:42.101Z,16.00
2018-07-14T01:19:10.654Z,16.00
2018-07-14T01:21:39.113Z,16.00
2018-07-14T01:24:07.578Z,16.00
2018-07-14T01:26:36.175Z,15.90
2018-07-14T01:29:04.746Z,15.90
2018-07-14T01:31:33.244Z,15.90
2018-07-14T01:34:01.705Z,15.90
2018-07-14T01:36:30.187Z,16.00
2018-07-14T01:38:58.636Z,15.90
2018-07-14T01:41:27.084Z,15.80
2018-07-14T01:43:55.562Z,15.80
2018-07-14T01:46:24.044Z,15.80
2018-07-14T01:48:52.576Z,15.80
2018-07-14T01:51:21.044Z,15.80
2018-07-14T01:53:49.510Z,15.80
2018-07-14T01:56:17.962Z,15.80
2018-07-14T01:58:46.477Z,15.80
2018-07-14T02:01:14.936Z,15.80
2018-07-14T02:03:43.463Z,15.80
2018-07-14T02:06:11.897Z,15.80
2018-07-14T02:08:40.395Z,15.80
2018-07-14T02:11:08.878Z,15.80
2018-07-14T02:16:05.534Z,15.80
2018-07-14T02:18:33.991Z,15.70
2018-07-14T02:21:02.473Z,15.70
2018-07-14T02:23:30.951Z,15.70
2018-07-14T02:25:59.463Z,15.70
2018-07-14T02:28:27.903Z,15.70
2018-07-14T02:30:56.515Z,15.70
2018-07-14T02:33:25.753Z,15.70
2018-07-14T02:35:54.246Z,15.70
2018-07-14T02:38:22.722Z,15.80
2018-07-14T02:40:52.193Z,15.70
2018-07-14T02:43:20.669Z,15.80
2018-07-14T02:45:49.167Z,15.90
2018-07-14T02:48:17.611Z,16.10
2018-07-14T02:50:46.549Z,16.00
2018-07-14T02:55:43.243Z,16.30
2018-07-14T02:58:11.724Z,16.20
2018-07-14T03:00:40.244Z,16.00
2018-07-14T03:03:08.782Z,16.00
2018-07-14T03:05:37.238Z,15.90
2018-07-14T03:08:05.726Z,15.80
2018-07-14T03:10:34.205Z,15.80
2018-07-14T03:13:02.701Z,15.80
2018-07-14T03:15:31.163Z,15.70
2018-07-14T03:17:59.623Z,15.70
2018-07-14T03:20:28.077Z,15.70
2018-07-14T03:22:56.555Z,15.70
2018-07-14T03:25:25.002Z,15.70
2018-07-14T03:27:53.549Z,15.70
2018-07-14T03:30:22.071Z,15.60
2018-07-14T03:32:50.548Z,15.60
2018-07-14T03:35:19.028Z,15.60
2018-07-14T03:37:47.690Z,15.50
2018-07-14T03:40:16.225Z,15.50
2018-07-14T03:42:44.678Z,15.70
2018-07-14T03:45:13.215Z,16.00
2018-07-14T03:47:41.682Z,15.90
2018-07-14T03:50:10.173Z,15.90
2018-07-14T03:52:38.723Z,15.60
2018-07-14T03:55:08.005Z,15.70
2018-07-14T03:57:36.551Z,15.70
2018-07-14T04:00:05.567Z,15.50
2018-07-14T04:02:34.263Z,15.40
2018-07-14T04:05:02.760Z,15.30
2018-07-14T04:07:31.269Z,15.30
2018-07-14T04:09:59.710Z,15.30
2018-07-14T04:14:56.362Z,15.20
2018-07-14T04:17:24.859Z,15.20
2018-07-14T04:19:53.415Z,15.20
2018-07-14T04:22:21.898Z,15.20
2018-07-14T04:24:50.346Z,15.30
2018-07-14T04:27:18.829Z,15.40
2018-07-14T04:29:47.322Z,15.40
2018-07-14T04:32:15.803Z,15.50
2018-07-14T04:34:44.264Z,15.50
2018-07-14T04:37:12.735Z,15.50
2018-07-14T04:39:41.213Z,15.50
2018-07-14T04:42:09.764Z,15.50
2018-07-14T04:44:38.223Z,15.60
2018-07-14T04:47:06.825Z,15.60
2018-07-14T04:49:35.322Z,15.60
2018-07-14T04:52:03.850Z,15.70
2018-07-14T04:54:32.536Z,15.70
2018-07-14T04:57:01.000Z,15.70
2018-07-14T04:59:29.455Z,15.80
2018-07-14T05:01:57.906Z,15.70
2018-07-14T05:04:26.402Z,15.80
2018-07-14T05:06:54.868Z,15.80
2018-07-14T05:09:23.340Z,15.90
2018-07-14T05:11:51.795Z,16.00
2018-07-14T05:14:20.264Z,16.10
2018-07-14T05:16:48.804Z,16.10
2018-07-14T05:19:17.285Z,16.20
2018-07-14T05:21:45.763Z,16.20
2018-07-14T05:24:14.285Z,16.50
2018-07-14T05:26:42.848Z,16.70
2018-07-14T05:29:11.333Z,16.80
2018-07-14T05:31:39.807Z,16.90
2018-07-14T05:34:08.251Z,17.00
2018-07-14T05:36:37.084Z,17.10
2018-07-14T05:39:06.505Z,17.10
2018-07-14T05:41:34.960Z,17.10
2018-07-14T05:44:03.483Z,17.20
2018-07-14T05:46:31.986Z,17.20
2018-07-14T05:49:00.466Z,17.40
2018-07-14T05:51:28.932Z,17.40
2018-07-14T05:53:57.427Z,17.50
2018-07-14T05:56:25.914Z,17.60
2018-07-14T05:58:54.392Z,17.70
2018-07-14T06:01:22.947Z,17.70
2018-07-14T06:03:51.440Z,17.90
2018-07-14T06:06:19.899Z,18.00
2018-07-14T06:08:48.404Z,18.20
2018-07-14T06:11:17.226Z,18.30
2018-07-14T06:13:46.958Z,18.50
2018-07-14T06:16:15.485Z,18.70
2018-07-14T06:18:43.909Z,18.90
2018-07-14T06:21:12.525Z,19.00
2018-07-14T06:23:41.003Z,19.10
2018-07-14T06:26:09.704Z,19.40
2018-07-14T06:28:40.140Z,19.50
2018-07-14T06:31:08.639Z,19.70
2018-07-14T06:33:37.151Z,20.00
2018-07-14T06:36:05.706Z,20.20
2018-07-14T06:38:34.218Z,20.40
2018-07-14T06:41:02.810Z,20.50
2018-07-14T06:43:31.280Z,20.50
2018-07-14T06:45:59.799Z,20.70
2018-07-14T06:48:28.407Z,21.00
2018-07-14T06:50:56.942Z,21.20
2018-07-14T06:53:25.545Z,21.30
2018-07-14T06:55:53.986Z,21.70
2018-07-14T06:58:22.443Z,22.20
2018-07-14T07:00:50.913Z,22.90
2018-07-14T07:03:19.465Z,24.00
2018-07-14T07:05:47.960Z,24.70
2018-07-14T07:08:16.569Z,25.50
2018-07-14T07:10:45.124Z,26.40
2018-07-14T07:13:13.659Z,26.60
2018-07-14T07:15:42.161Z,27.10
2018-07-14T07:18:10.804Z,27.30
2018-07-14T07:20:39.272Z,27.90
2018-07-14T07:23:07.791Z,27.60
2018-07-14T07:25:36.362Z,28.00
2018-07-14T07:28:04.923Z,28.40
2018-07-14T07:30:33.453Z,29.00
2018-07-14T07:33:01.925Z,29.30
2018-07-14T07:35:30.408Z,29.90
2018-07-14T07:37:58.918Z,30.70
2018-07-14T07:40:27.553Z,30.70
2018-07-14T07:42:56.092Z,31.10
2018-07-14T07:45:24.632Z,30.90
2018-07-14T07:47:53.106Z,31.20
2018-07-14T07:50:21.605Z,31.70
2018-07-14T07:52:50.097Z,31.00
2018-07-14T07:55:18.551Z,31.40
2018-07-14T07:57:47.167Z,31.40
2018-07-14T08:00:15.615Z,31.90
2018-07-14T08:02:44.096Z,32.30
2018-07-14T08:05:12.645Z,32.10
2018-07-14T08:07:41.195Z,31.60
2018-07-14T08:12:39.398Z,31.60
2018-07-14T08:15:08.003Z,32.30
2018-07-14T08:17:36.544Z,32.50
2018-07-14T08:20:05.401Z,33.80
2018-07-14T08:22:34.296Z,33.40
2018-07-14T08:25:02.979Z,33.00
2018-07-14T08:27:31.488Z,33.30
2018-07-14T08:29:59.979Z,33.70
2018-07-14T08:32:28.864Z,34.60
2018-07-14T08:35:00.147Z,34.60
2018-07-14T08:37:29.700Z,34.60
2018-07-14T08:39:58.173Z,33.70
2018-07-14T08:42:26.740Z,33.70
2018-07-14T08:44:55.292Z,33.80
2018-07-14T08:47:23.805Z,33.90
2018-07-14T08:49:52.343Z,34.40
2018-07-14T08:52:20.863Z,35.00
2018-07-14T08:54:49.644Z,33.80
2018-07-14T08:57:18.174Z,34.90
2018-07-14T08:59:47.467Z,35.20
2018-07-14T09:02:15.956Z,35.20
2018-07-14T09:04:44.630Z,34.20
2018-07-14T09:07:13.169Z,34.40
2018-07-14T09:09:41.691Z,33.30
2018-07-14T09:12:10.215Z,33.70
2018-07-14T09:14:38.902Z,34.20
2018-07-14T09:17:07.747Z,34.00
2018-07-14T09:19:36.935Z,35.10
2018-07-14T09:22:06.097Z,36.10
2018-07-14T09:24:34.840Z,37.40
2018-07-14T09:27:03.372Z,37.20
2018-07-14T09:29:31.923Z,38.30
2018-07-14T09:32:00.539Z,38.40
2018-07-14T09:34:29.202Z,38.10
2018-07-14T09:36:57.709Z,37.80
2018-07-14T09:39:26.493Z,38.40
2018-07-14T09:41:55.147Z,37.70
2018-07-14T09:44:23.680Z,37.50
2018-07-14T09:46:52.349Z,37.70
2018-07-14T09:49:20.945Z,38.30
2018-07-14T09:54:18.145Z,36.40
2018-07-14T09:56:46.671Z,34.50
2018-07-14T09:59:15.256Z,33.40
2018-07-14T10:01:43.977Z,33.90
2018-07-14T10:06:40.889Z,35.40
2018-07-14T10:09:09.489Z,33.80
2018-07-14T10:11:37.971Z,32.60
2018-07-14T10:14:06.446Z,31.10
2018-07-14T10:16:35.020Z,29.90
2018-07-14T10:19:03.550Z,29.60
2018-07-14T10:21:32.106Z,30.10
2018-07-14T10:24:00.592Z,29.80
2018-07-14T10:26:29.088Z,29.70
2018-07-14T10:28:57.723Z,29.30
2018-07-14T10:31:26.265Z,28.90
2018-07-14T10:33:54.841Z,28.60
2018-07-14T10:36:23.347Z,28.10
2018-07-14T10:38:52.065Z,27.80
2018-07-14T10:41:20.605Z,28.10
2018-07-14T10:46:17.341Z,28.20
2018-07-14T10:48:45.992Z,28.10
2018-07-14T10:51:14.541Z,28.20
2018-07-14T10:53:43.115Z,28.10
2018-07-14T10:56:11.607Z,27.90
2018-07-14T10:58:40.791Z,27.80
2018-07-14T11:01:09.390Z,27.80
2018-07-14T11:03:38.007Z,27.70
2018-07-14T11:06:07.152Z,28.00
2018-07-14T11:08:35.655Z,29.10
2018-07-14T11:11:04.860Z,30.00
2018-07-14T11:16:01.566Z,31.10
2018-07-14T11:18:31.691Z,31.60
2018-07-14T11:21:00.324Z,31.20
2018-07-14T11:23:28.830Z,31.30
2018-07-14T11:25:57.479Z,31.80
2018-07-14T11:28:26.134Z,31.50
2018-07-14T11:30:54.754Z,31.70
2018-07-14T11:33:23.281Z,31.80
2018-07-14T11:35:51.787Z,31.70
2018-07-14T11:38:20.393Z,31.60
2018-07-14T11:40:48.928Z,31.00
2018-07-14T11:43:17.495Z,30.20
2018-07-14T11:45:46.125Z,29.80
2018-07-14T11:48:14.602Z,29.30
2018-07-14T11:50:43.221Z,29.10
2018-07-14T11:53:11.672Z,29.00
2018-07-14T11:55:40.192Z,29.10
2018-07-14T11:58:08.718Z,29.20
2018-07-14T12:00:37.245Z,29.10
2018-07-14T12:03:05.958Z,29.20
2018-07-14T12:05:34.562Z,29.00
2018-07-14T12:08:03.046Z,28.80
2018-07-14T12:10:31.636Z,28.80
2018-07-14T12:13:00.133Z,28.70
2018-07-14T12:15:28.710Z,28.80
2018-07-14T12:17:57.166Z,28.50
2018-07-14T12:20:25.738Z,28.50
2018-07-14T12:22:54.222Z,28.60
2018-07-14T12:25:22.737Z,28.70
2018-07-14T12:27:51.330Z,29.60
2018-07-14T12:30:19.876Z,30.00
2018-07-14T12:32:48.400Z,29.90
2018-07-14T12:35:16.939Z,30.30
2018-07-14T12:37:46.200Z,30.80
2018-07-14T12:40:14.715Z,31.00
2018-07-14T12:42:43.212Z,31.00
2018-07-14T12:45:11.731Z,31.00
2018-07-14T12:47:40.330Z,31.50
2018-07-14T12:50:09.311Z,31.20
2018-07-14T12:52:38.248Z,31.30
2018-07-14T12:57:35.527Z,31.00
2018-07-14T13:00:05.274Z,31.10
2018-07-14T13:02:33.727Z,31.40
2018-07-14T13:05:02.539Z,31.40
2018-07-14T13:07:31.172Z,31.20
2018-07-14T13:09:59.755Z,30.80
2018-07-14T13:12:28.400Z,30.40
2018-07-14T13:14:56.926Z,30.30
2018-07-14T13:17:25.524Z,30.30
2018-07-14T13:19:53.987Z,30.60
2018-07-14T13:22:22.581Z,30.70
2018-07-14T13:24:51.371Z,30.80
2018-07-14T13:27:19.906Z,31.20
2018-07-14T13:29:48.438Z,31.40
2018-07-14T13:32:17.035Z,31.20
2018-07-14T13:37:13.976Z,31.10
2018-07-14T13:39:42.650Z,30.20
2018-07-14T13:42:11.191Z,30.40
2018-07-14T13:44:39.742Z,30.10
2018-07-14T13:47:08.307Z,29.90
2018-07-14T13:49:36.871Z,30.30
2018-07-14T13:52:05.571Z,30.30
2018-07-14T13:54:34.478Z,29.90
2018-07-14T13:57:03.186Z,30.10
2018-07-14T13:59:31.717Z,30.60
2018-07-14T14:02:00.556Z,30.70
2018-07-14T14:04:29.145Z,30.80
2018-07-14T14:06:58.063Z,30.20
2018-07-14T14:09:27.430Z,29.90
2018-07-14T14:11:56.460Z,29.40
2018-07-14T14:14:25.549Z,29.30
2018-07-14T14:16:54.121Z,29.80
2018-07-14T14:19:22.689Z,30.40
2018-07-14T14:21:51.285Z,30.10
2018-07-14T14:24:20.248Z,29.90
2018-07-14T14:26:48.783Z,30.10
2018-07-14T14:29:17.278Z,30.20
2018-07-14T14:31:45.922Z,30.30
2018-07-14T14:34:14.466Z,30.20
2018-07-14T14:36:43.140Z,30.00
2018-07-14T14:39:11.900Z,29.50
2018-07-14T14:41:40.524Z,29.40
2018-07-14T14:44:09.068Z,29.40
2018-07-14T14:46:38.465Z,29.40
2018-07-14T14:49:07.024Z,29.70
2018-07-14T14:51:35.614Z,29.50
2018-07-14T14:54:04.180Z,29.20
2018-07-14T14:56:32.778Z,29.20
2018-07-14T14:59:01.372Z,29.40
2018-07-14T15:01:29.919Z,29.30
2018-07-14T15:03:58.411Z,29.50
2018-07-14T15:06:27.231Z,29.50
2018-07-14T15:08:55.777Z,29.60
2018-07-14T15:11:24.528Z,29.60
2018-07-14T15:13:53.039Z,30.00
2018-07-14T15:16:21.636Z,29.80
2018-07-14T15:18:50.164Z,29.20
2018-07-14T15:21:18.747Z,29.10
2018-07-14T15:23:47.215Z,28.60
2018-07-14T15:26:15.731Z,28.40
2018-07-14T15:28:44.249Z,28.40
2018-07-14T15:31:12.780Z,28.70
2018-07-14T15:33:41.545Z,28.70
2018-07-14T15:36:10.140Z,28.60
2018-07-14T15:38:38.720Z,28.50
2018-07-14T15:41:07.478Z,28.40
2018-07-14T15:43:36.011Z,28.40
2018-07-14T15:46:04.504Z,28.40
2018-07-14T15:48:33.175Z,28.40
2018-07-14T15:51:01.808Z,28.30
2018-07-14T15:53:30.469Z,28.30
2018-07-14T15:55:59.175Z,28.30
2018-07-14T15:58:27.881Z,28.30
2018-07-14T16:00:56.486Z,28.50
2018-07-14T16:03:24.998Z,28.40
2018-07-14T16:05:53.544Z,28.40
2018-07-14T16:08:22.093Z,28.30
2018-07-14T16:10:50.836Z,28.20
2018-07-14T16:13:19.419Z,28.10
2018-07-14T16:15:47.908Z,28.20
2018-07-14T16:18:16.433Z,28.10
2018-07-14T16:20:44.925Z,28.20
2018-07-14T16:23:13.595Z,28.40
2018-07-14T16:25:42.157Z,28.50
2018-07-14T16:28:10.687Z,28.50
2018-07-14T16:30:39.315Z,28.40
2018-07-14T16:33:07.789Z,28.40
2018-07-14T16:35:36.451Z,28.30
2018-07-14T16:38:05.187Z,28.40
2018-07-14T16:40:33.665Z,28.40
2018-07-14T16:43:02.140Z,28.40
2018-07-14T16:45:30.746Z,28.40
2018-07-14T16:47:59.312Z,28.20
2018-07-14T16:50:27.993Z,28.00
2018-07-14T16:52:56.529Z,28.00
2018-07-14T16:55:25.495Z,27.80
2018-07-14T16:57:54.030Z,27.80
2018-07-14T17:00:22.727Z,27.70
2018-07-14T17:02:51.440Z,27.70
2018-07-14T17:05:20.136Z,27.60
2018-07-14T17:07:48.643Z,27.70
2018-07-14T17:10:17.233Z,27.60
2018-07-14T17:12:45.719Z,27.50
2018-07-14T17:15:14.350Z,27.50
2018-07-14T17:17:42.963Z,27.30
2018-07-14T17:20:11.458Z,27.20
2018-07-14T17:22:39.929Z,27.00
2018-07-14T17:25:08.450Z,26.80
2018-07-14T17:27:36.943Z,26.60
2018-07-14T17:30:05.671Z,26.50
2018-07-14T17:32:34.197Z,26.50
2018-07-14T17:35:02.702Z,26.50
2018-07-14T17:37:31.184Z,26.50
2018-07-14T17:39:59.637Z,26.40
2018-07-14T17:42:28.136Z,26.20
2018-07-14T17:44:56.803Z,26.10
2018-07-14T17:47:25.415Z,26.00
2018-07-14T17:49:53.887Z,25.90
2018-07-14T17:52:22.425Z,25.80
2018-07-14T17:54:50.931Z,25.60
2018-07-14T17:57:19.401Z,25.50
2018-07-14T17:59:47.977Z,25.40
2018-07-14T18:02:16.518Z,25.40
2018-07-14T18:04:45.008Z,25.30
2018-07-14T18:07:13.571Z,25.30
2018-07-14T18:09:42.091Z,25.10
2018-07-14T18:12:10.781Z,25.10
2018-07-14T18:14:39.289Z,25.00
2018-07-14T18:17:07.855Z,25.00
2018-07-14T18:19:36.542Z,24.90
2018-07-14T18:22:05.128Z,24.90
2018-07-14T18:24:33.879Z,24.80
2018-07-14T18:27:02.397Z,24.80
2018-07-14T18:29:30.902Z,24.80
2018-07-14T18:31:59.468Z,24.80
2018-07-14T18:34:28.006Z,24.80
2018-07-14T18:36:56.495Z,24.70
2018-07-14T18:39:25.162Z,24.60
2018-07-14T18:41:53.738Z,24.60
2018-07-14T18:44:22.241Z,24.50
2018-07-14T18:46:50.858Z,24.50
2018-07-14T18:49:19.397Z,24.40
2018-07-14T18:51:48.109Z,24.30
2018-07-14T18:54:16.654Z,24.30
2018-07-14T18:56:45.109Z,24.30
2018-07-14T18:59:13.763Z,24.20
2018-07-14T19:01:42.340Z,24.00
2018-07-14T19:04:10.779Z,24.00
2018-07-14T19:06:39.253Z,23.90
2018-07-14T19:09:07.999Z,23.80
2018-07-14T19:11:36.433Z,23.80
2018-07-14T19:14:05.080Z,23.70
2018-07-14T19:16:33.585Z,23.60
2018-07-14T19:21:30.433Z,23.40
2018-07-14T19:23:58.909Z,23.30
2018-07-14T19:26:27.515Z,23.20
2018-07-14T19:28:56.032Z,23.00
2018-07-14T19:31:24.570Z,22.90
2018-07-14T19:33:53.120Z,22.80
2018-07-14T19:36:22.052Z,22.70
2018-07-14T19:38:50.538Z,22.60
2018-07-14T19:41:19.112Z,22.50
2018-07-14T19:43:47.699Z,22.30
2018-07-14T19:46:16.228Z,22.20
2018-07-14T19:48:44.764Z,22.20
2018-07-14T19:51:13.438Z,22.10
2018-07-14T19:53:42.869Z,22.00
2018-07-14T19:56:11.392Z,21.90
2018-07-14T19:58:39.912Z,21.80
2018-07-14T20:01:08.465Z,21.70
2018-07-14T20:03:37.133Z,21.70
2018-07-14T20:06:05.892Z,21.60
2018-07-14T20:08:34.359Z,21.50
2018-07-14T20:11:02.939Z,21.40
2018-07-14T20:13:31.639Z,21.30
2018-07-14T20:16:00.202Z,21.20
2018-07-14T20:18:28.732Z,21.20
2018-07-14T20:20:57.680Z,21.30
2018-07-14T20:23:26.213Z,21.30
2018-07-14T20:25:54.705Z,21.30
2018-07-14T20:28:23.332Z,21.30
2018-07-14T20:30:51.813Z,21.30
2018-07-14T20:33:20.450Z,21.10
2018-07-14T20:35:49.130Z,21.00
2018-07-14T20:38:17.623Z,21.00
2018-07-14T20:40:46.176Z,21.00
2018-07-14T20:43:14.752Z,21.10
2018-07-14T20:45:43.257Z,21.00
2018-07-14T20:48:11.730Z,20.90
2018-07-14T20:50:40.489Z,20.80
2018-07-14T20:53:09.056Z,20.70
2018-07-14T20:55:37.703Z,20.60
2018-07-14T20:58:06.530Z,20.50
2018-07-14T21:00:34.983Z,20.40
2018-07-14T21:03:03.748Z,20.30
2018-07-14T21:05:32.366Z,20.20
2018-07-14T21:08:00.978Z,20.10
2018-07-14T21:10:29.472Z,20.10
2018-07-14T21:12:59.966Z,20.00
2018-07-14T21:15:28.611Z,20.00
2018-07-14T21:17:57.273Z,19.90
2018-07-14T21:20:25.791Z,19.90
2018-07-14T21:22:54.275Z,19.80
2018-07-14T21:25:22.956Z,19.80
2018-07-14T21:27:51.652Z,19.70
2018-07-14T21:30:20.130Z,19.60
2018-07-14T21:32:48.589Z,19.70
2018-07-14T21:35:17.104Z,19.60
2018-07-14T21:37:45.622Z,19.60
2018-07-14T21:40:14.246Z,19.50
2018-07-14T21:42:42.644Z,19.40
2018-07-14T21:45:11.224Z,19.40
2018-07-14T21:47:39.742Z,19.30
2018-07-14T21:50:08.231Z,19.30
2018-07-14T21:52:36.768Z,19.20
2018-07-14T21:55:05.544Z,19.20
2018-07-14T21:57:34.103Z,19.30
2018-07-14T22:00:02.642Z,19.20
2018-07-14T22:02:31.120Z,19.10
2018-07-14T22:04:59.657Z,19.10
2018-07-14T22:07:28.228Z,19.10
2018-07-14T22:09:56.650Z,19.00
2018-07-14T22:12:25.224Z,18.90
2018-07-14T22:14:53.888Z,18.80
2018-07-14T22:17:22.335Z,18.80
2018-07-14T22:19:50.834Z,18.80
2018-07-14T22:22:19.333Z,18.70
2018-07-14T22:24:47.814Z,18.60
2018-07-14T22:27:16.333Z,18.60
2018-07-14T22:29:44.800Z,18.50
2018-07-14T22:32:13.371Z,18.50
2018-07-14T22:34:41.963Z,18.50
2018-07-14T22:37:10.461Z,18.40
2018-07-14T22:39:39.063Z,18.40
2018-07-14T22:47:04.005Z,18.30
2018-07-14T22:49:32.670Z,18.30
2018-07-14T22:52:01.192Z,18.30
2018-07-14T22:54:29.684Z,18.30
2018-07-14T22:56:58.247Z,18.30
2018-07-14T22:59:26.752Z,18.30
2018-07-14T23:01:55.254Z,18.30
2018-07-14T23:04:23.831Z,18.20
2018-07-14T23:06:52.477Z,18.10
2018-07-14T23:09:20.941Z,18.10
2018-07-14T23:11:49.431Z,18.00
2018-07-14T23:16:46.102Z,17.90
2018-07-14T23:19:14.756Z,17.80
2018-07-14T23:21:43.235Z,17.90
2018-07-14T23:24:11.837Z,17.90
2018-07-14T23:26:40.323Z,17.90
2018-07-14T23:29:08.938Z,17.80
2018-07-14T23:31:37.410Z,17.70
2018-07-14T23:36:34.100Z,17.70
2018-07-14T23:39:02.638Z,17.70
2018-07-14T23:41:31.183Z,17.60
2018-07-14T23:43:59.658Z,17.50
2018-07-14T23:46:28.273Z,17.40
2018-07-14T23:48:56.758Z,17.40
2018-07-14T23:51:25.261Z,17.40
2018-07-14T23:53:53.763Z,17.40
2018-07-14T23:56:22.389Z,17.40
2018-07-14T23:58:51.136Z,17.30
